sensor_id;sensor_type;location;lat;lon;timestamp;pressure;altitude;pressure_sealevel;temperature;humidity
54882;BME280;40775;51.448;4.742;2023-01-28T00:01:55;102830.84;;;5.77;100.00
54882;BME280;40775;51.448;4.742;2023-01-28T00:04:23;102834.91;;;5.73;100.00
54882;BME280;40775;51.448;4.742;2023-01-28T00:06:50;102844.00;;;5.78;100.00
54882;BME280;40775;51.448;4.742;2023-01-28T00:09:17;102853.94;;;5.84;100.00
54882;BME280;40775;51.448;4.742;2023-01-28T00:11:44;102854.19;;;5.75;100.00
54882;BME280;40775;51.448;4.742;2023-01-28T00:14:11;102856.34;;;5.81;100.00
54882;BME280;40775;51.448;4.742;2023-01-28T00:16:38;102850.53;;;5.73;100.00
54882;BME280;40775;51.448;4.742;2023-01-28T00:19:05;102851.81;;;5.78;100.00
54882;BME280;40775;51.448;4.742;2023-01-28T00:21:33;102858.63;;;5.76;100.00
54882;BME280;40775;51.448;4.742;2023-01-28T00:24:00;102858.63;;;5.76;100.00
54882;BME280;40775;51.448;4.742;2023-01-28T00:26:27;102852.59;;;5.77;100.00
54882;BME280;40775;51.448;4.742;2023-01-28T00:28:54;102851.13;;;5.69;100.00
54882;BME280;40775;51.448;4.742;2023-01-28T00:31:24;102858.63;;;5.76;100.00
54882;BME280;40775;51.448;4.742;2023-01-28T00:33:53;102865.06;;;5.70;100.00
54882;BME280;40775;51.448;4.742;2023-01-28T00:36:23;102865.16;;;5.71;100.00
54882;BME280;40775;51.448;4.742;2023-01-28T00:38:56;102871.41;;;5.73;100.00
54882;BME280;40775;51.448;4.742;2023-01-28T00:41:27;102876.50;;;5.72;100.00
54882;BME280;40775;51.448;4.742;2023-01-28T00:43:54;102871.06;;;5.69;100.00
54882;BME280;40775;51.448;4.742;2023-01-28T00:46:22;102859.97;;;5.71;100.00
54882;BME280;40775;51.448;4.742;2023-01-28T00:48:51;102865.38;;;5.74;100.00
54882;BME280;40775;51.448;4.742;2023-01-28T00:51:19;102875.28;;;5.67;100.00
54882;BME280;40775;51.448;4.742;2023-01-28T00:53:47;102873.09;;;5.73;100.00
54882;BME280;40775;51.448;4.742;2023-01-28T00:56:16;102877.41;;;5.72;100.00
54882;BME280;40775;51.448;4.742;2023-01-28T00:58:44;102873.78;;;5.70;100.00
54882;BME280;40775;51.448;4.742;2023-01-28T01:01:18;102877.19;;;5.69;100.00
54882;BME280;40775;51.448;4.742;2023-01-28T01:03:46;102868.13;;;5.64;100.00
54882;BME280;40775;51.448;4.742;2023-01-28T01:06:14;102874.03;;;5.62;100.00
54882;BME280;40775;51.448;4.742;2023-01-28T01:08:42;102878.34;;;5.61;100.00
54882;BME280;40775;51.448;4.742;2023-01-28T01:11:16;102870.06;;;5.67;100.00
54882;BME280;40775;51.448;4.742;2023-01-28T01:13:44;102876.97;;;5.66;100.00
54882;BME280;40775;51.448;4.742;2023-01-28T01:16:13;102874.72;;;5.59;100.00
54882;BME280;40775;51.448;4.742;2023-01-28T01:18:44;102870.41;;;5.59;100.00
54882;BME280;40775;51.448;4.742;2023-01-28T01:21:15;102870.19;;;5.56;100.00
54882;BME280;40775;51.448;4.742;2023-01-28T01:23:44;102871.53;;;5.63;100.00
54882;BME280;40775;51.448;4.742;2023-01-28T01:26:12;102872.13;;;5.59;100.00
54882;BME280;40775;51.448;4.742;2023-01-28T01:28:40;102872.56;;;5.53;100.00
54882;BME280;40775;51.448;4.742;2023-01-28T01:31:11;102863.84;;;5.53;100.00
54882;BME280;40775;51.448;4.742;2023-01-28T01:33:45;102856.69;;;5.62;100.00
54882;BME280;40775;51.448;4.742;2023-01-28T01:36:14;102860.25;;;5.51;100.00
54882;BME280;40775;51.448;4.742;2023-01-28T01:38:41;102859.34;;;5.50;100.00
54882;BME280;40775;51.448;4.742;2023-01-28T01:41:29;102856.25;;;5.56;100.00
54882;BME280;40775;51.448;4.742;2023-01-28T01:44:03;102854.78;;;5.59;100.00
54882;BME280;40775;51.448;4.742;2023-01-28T01:49:27;102862.47;;;5.46;100.00
54882;BME280;40775;51.448;4.742;2023-01-28T01:52:06;102866.25;;;5.50;100.00
54882;BME280;40775;51.448;4.742;2023-01-28T01:54:38;102861.69;;;5.47;100.00
54882;BME280;40775;51.448;4.742;2023-01-28T01:57:10;102862.72;;;5.49;100.00
54882;BME280;40775;51.448;4.742;2023-01-28T01:59:41;102870.44;;;5.48;100.00
54882;BME280;40775;51.448;4.742;2023-01-28T02:02:10;102870.66;;;5.39;100.00
54882;BME280;40775;51.448;4.742;2023-01-28T02:04:41;102872.00;;;5.46;100.00
54882;BME280;40775;51.448;4.742;2023-01-28T02:07:14;102871.44;;;5.50;100.00
54882;BME280;40775;51.448;4.742;2023-01-28T02:09:42;102871.09;;;5.45;100.00
54882;BME280;40775;51.448;4.742;2023-01-28T02:12:15;102867.03;;;5.49;100.00
54882;BME280;40775;51.448;4.742;2023-01-28T02:15:06;102868.06;;;5.51;100.00
54882;BME280;40775;51.448;4.742;2023-01-28T02:17:35;102874.72;;;5.47;100.00
54882;BME280;40775;51.448;4.742;2023-01-28T02:32:35;102868.38;;;5.44;100.00
54882;BME280;40775;51.448;4.742;2023-01-28T02:35:34;102870.53;;;5.38;100.00
54882;BME280;40775;51.448;4.742;2023-01-28T02:40:49;102873.47;;;5.42;100.00
54882;BME280;40775;51.448;4.742;2023-01-28T02:43:41;102869.75;;;5.39;100.00
54882;BME280;40775;51.448;4.742;2023-01-28T02:49:14;102869.53;;;5.36;100.00
54882;BME280;40775;51.448;4.742;2023-01-28T03:01:41;102876.44;;;5.35;100.00
54882;BME280;40775;51.448;4.742;2023-01-28T03:04:31;102876.44;;;5.35;100.00
54882;BME280;40775;51.448;4.742;2023-01-28T03:07:02;102879.94;;;5.36;100.00
54882;BME280;40775;51.448;4.742;2023-01-28T03:09:32;102883.34;;;5.35;100.00
54882;BME280;40775;51.448;4.742;2023-01-28T03:12:08;102882.44;;;5.34;100.00
54882;BME280;40775;51.448;4.742;2023-01-28T03:15:18;102887.53;;;5.33;100.00
54882;BME280;40775;51.448;4.742;2023-01-28T03:18:37;102893.75;;;5.35;100.00
54882;BME280;40775;51.448;4.742;2023-01-28T03:21:33;102892.72;;;5.33;100.00
54882;BME280;40775;51.448;4.742;2023-01-28T03:24:27;102886.63;;;5.32;100.00
54882;BME280;40775;51.448;4.742;2023-01-28T03:30:34;102889.78;;;5.28;100.00
54882;BME280;40775;51.448;4.742;2023-01-28T03:33:23;102885.38;;;5.27;100.00
54882;BME280;40775;51.448;4.742;2023-01-28T03:36:11;102897.72;;;5.30;100.00
54882;BME280;40775;51.448;4.742;2023-01-28T03:38:56;102893.31;;;5.28;100.00
54882;BME280;40775;51.448;4.742;2023-01-28T03:41:25;102894.91;;;5.26;100.00
54882;BME280;40775;51.448;4.742;2023-01-28T03:43:53;102904.75;;;5.31;100.00
54882;BME280;40775;51.448;4.742;2023-01-28T03:46:20;102906.91;;;5.24;100.00
54882;BME280;40775;51.448;4.742;2023-01-28T03:48:48;102900.78;;;5.24;100.00
54882;BME280;40775;51.448;4.742;2023-01-28T03:51:15;102903.28;;;5.22;100.00
54882;BME280;40775;51.448;4.742;2023-01-28T03:53:43;102911.72;;;5.20;100.00
54882;BME280;40775;51.448;4.742;2023-01-28T03:56:10;102905.88;;;5.22;100.00
54882;BME280;40775;51.448;4.742;2023-01-28T03:58:44;102902.25;;;5.20;100.00
54882;BME280;40775;51.448;4.742;2023-01-28T04:01:22;102916.28;;;5.22;100.00
54882;BME280;40775;51.448;4.742;2023-01-28T04:03:50;102917.31;;;5.24;100.00
54882;BME280;40775;51.448;4.742;2023-01-28T04:06:17;102914.59;;;5.23;100.00
54882;BME280;40775;51.448;4.742;2023-01-28T04:08:44;102911.41;;;5.27;100.00
54882;BME280;40775;51.448;4.742;2023-01-28T04:11:14;102913.44;;;5.19;100.00
54882;BME280;40775;51.448;4.742;2023-01-28T04:13:42;102917.63;;;5.17;100.00
54882;BME280;40775;51.448;4.742;2023-01-28T04:16:14;102915.91;;;5.18;100.00
54882;BME280;40775;51.448;4.742;2023-01-28T04:18:43;102913.19;;;5.16;100.00
54882;BME280;40775;51.448;4.742;2023-01-28T04:21:11;102912.31;;;5.27;100.00
54882;BME280;40775;51.448;4.742;2023-01-28T04:23:38;102921.25;;;5.19;100.00
54882;BME280;40775;51.448;4.742;2023-01-28T04:26:05;102920.09;;;5.16;100.00
54882;BME280;40775;51.448;4.742;2023-01-28T04:28:32;102916.81;;;5.18;100.00
54882;BME280;40775;51.448;4.742;2023-01-28T04:30:59;102922.28;;;5.21;100.00
54882;BME280;40775;51.448;4.742;2023-01-28T04:33:26;102904.84;;;5.20;100.00
54882;BME280;40775;51.448;4.742;2023-01-28T04:35:53;102920.22;;;5.17;100.00
54882;BME280;40775;51.448;4.742;2023-01-28T04:38:20;102910.59;;;5.16;100.00
54882;BME280;40775;51.448;4.742;2023-01-28T04:40:52;102914.91;;;5.16;100.00
54882;BME280;40775;51.448;4.742;2023-01-28T04:43:19;102909.81;;;5.17;100.00
54882;BME280;40775;51.448;4.742;2023-01-28T04:45:47;102916.72;;;5.17;100.00
54882;BME280;40775;51.448;4.742;2023-01-28T04:48:15;102918.63;;;5.19;100.00
54882;BME280;40775;51.448;4.742;2023-01-28T04:50:43;102911.72;;;5.20;100.00
54882;BME280;40775;51.448;4.742;2023-01-28T04:53:11;102912.41;;;5.17;100.00
54882;BME280;40775;51.448;4.742;2023-01-28T04:55:38;102915.72;;;5.26;100.00
54882;BME280;40775;51.448;4.742;2023-01-28T04:58:18;102922.53;;;5.24;100.00
54882;BME280;40775;51.448;4.742;2023-01-28T05:00:45;102921.94;;;5.28;100.00
54882;BME280;40775;51.448;4.742;2023-01-28T05:03:12;102923.50;;;5.15;100.00
54882;BME280;40775;51.448;4.742;2023-01-28T05:05:40;102924.09;;;5.22;100.00
54882;BME280;40775;51.448;4.742;2023-01-28T05:08:08;102919.22;;;5.27;100.00
54882;BME280;40775;51.448;4.742;2023-01-28T05:10:35;102924.31;;;5.25;100.00
54882;BME280;40775;51.448;4.742;2023-01-28T05:13:02;102920.25;;;5.29;100.00
54882;BME280;40775;51.448;4.742;2023-01-28T05:15:29;102919.44;;;5.18;100.00
54882;BME280;40775;51.448;4.742;2023-01-28T05:17:56;102925.91;;;5.23;100.00
54882;BME280;40775;51.448;4.742;2023-01-28T05:20:23;102923.41;;;5.25;100.00
54882;BME280;40775;51.448;4.742;2023-01-28T05:22:50;102917.63;;;5.17;100.00
54882;BME280;40775;51.448;4.742;2023-01-28T05:25:18;102914.00;;;5.15;100.00
54882;BME280;40775;51.448;4.742;2023-01-28T05:27:51;102899.97;;;5.13;100.00
54882;BME280;40775;51.448;4.742;2023-01-28T05:30:20;102909.56;;;5.14;100.00
54882;BME280;40775;51.448;4.742;2023-01-28T05:32:47;102904.38;;;5.14;100.00
54882;BME280;40775;51.448;4.742;2023-01-28T05:35:14;102911.63;;;5.18;100.00
54882;BME280;40775;51.448;4.742;2023-01-28T05:37:42;102922.41;;;5.23;100.00
54882;BME280;40775;51.448;4.742;2023-01-28T05:40:11;102917.38;;;5.14;100.00
54882;BME280;40775;51.448;4.742;2023-01-28T05:42:39;102919.53;;;5.20;100.00
54882;BME280;40775;51.448;4.742;2023-01-28T05:45:07;102924.75;;;5.20;100.00
54882;BME280;40775;51.448;4.742;2023-01-28T05:47:34;102924.09;;;5.22;100.00
54882;BME280;40775;51.448;4.742;2023-01-28T05:50:01;102917.31;;;5.24;100.00
54882;BME280;40775;51.448;4.742;2023-01-28T05:52:28;102923.84;;;5.19;100.00
54882;BME280;40775;51.448;4.742;2023-01-28T05:54:55;102929.84;;;5.07;100.00
54882;BME280;40775;51.448;4.742;2023-01-28T05:57:22;102934.69;;;5.02;100.00
54882;BME280;40775;51.448;4.742;2023-01-28T05:59:49;102937.75;;;5.08;100.00
54882;BME280;40775;51.448;4.742;2023-01-28T06:02:16;102943.31;;;5.13;100.00
54882;BME280;40775;51.448;4.742;2023-01-28T06:04:43;102935.28;;;5.10;100.00
54882;BME280;40775;51.448;4.742;2023-01-28T06:07:10;102927.34;;;4.96;100.00
54882;BME280;40775;51.448;4.742;2023-01-28T06:09:39;102927.34;;;5.08;100.00
54882;BME280;40775;51.448;4.742;2023-01-28T06:12:06;102935.38;;;5.11;100.00
54882;BME280;40775;51.448;4.742;2023-01-28T06:14:33;102934.38;;;5.09;100.00
54882;BME280;40775;51.448;4.742;2023-01-28T06:17:00;102922.03;;;5.07;100.00
54882;BME280;40775;51.448;4.742;2023-01-28T06:19:27;102921.13;;;5.06;100.00
54882;BME280;40775;51.448;4.742;2023-01-28T06:21:54;102924.16;;;5.01;100.00
54882;BME280;40775;51.448;4.742;2023-01-28T06:24:21;102927.91;;;5.04;100.00
54882;BME280;40775;51.448;4.742;2023-01-28T06:26:48;102926.78;;;5.01;100.00
54882;BME280;40775;51.448;4.742;2023-01-28T06:29:15;102924.06;;;4.99;100.00
54882;BME280;40775;51.448;4.742;2023-01-28T06:31:42;102922.34;;;5.00;100.00
54882;BME280;40775;51.448;4.742;2023-01-28T06:34:09;102928.34;;;4.99;100.00
54882;BME280;40775;51.448;4.742;2023-01-28T06:36:36;102929.03;;;4.96;100.00
54882;BME280;40775;51.448;4.742;2023-01-28T06:39:04;102927.78;;;5.03;100.00
54882;BME280;40775;51.448;4.742;2023-01-28T06:41:31;102932.31;;;5.05;100.00
54882;BME280;40775;51.448;4.742;2023-01-28T06:43:58;102929.03;;;4.96;100.00
54882;BME280;40775;51.448;4.742;2023-01-28T06:46:25;102930.63;;;4.94;100.00
54882;BME280;40775;51.448;4.742;2023-01-28T06:48:52;102923.56;;;4.93;100.00
54882;BME280;40775;51.448;4.742;2023-01-28T06:51:19;102937.63;;;4.95;100.00
54882;BME280;40775;51.448;4.742;2023-01-28T06:53:46;102943.97;;;4.99;100.00
54882;BME280;40775;51.448;4.742;2023-01-28T06:56:13;102938.53;;;4.95;100.00
54882;BME280;40775;51.448;4.742;2023-01-28T06:58:40;102949.59;;;4.93;100.00
54882;BME280;40775;51.448;4.742;2023-01-28T07:01:07;102949.59;;;4.93;100.00
54882;BME280;40775;51.448;4.742;2023-01-28T07:03:35;102948.69;;;4.92;100.00
54882;BME280;40775;51.448;4.742;2023-01-28T07:06:03;102953.13;;;4.93;100.00
54882;BME280;40775;51.448;4.742;2023-01-28T07:08:30;102945.03;;;4.79;100.00
54882;BME280;40775;51.448;4.742;2023-01-28T07:10:57;102955.91;;;4.85;100.00
54882;BME280;40775;51.448;4.742;2023-01-28T07:13:25;102954.34;;;4.87;100.00
54882;BME280;40775;51.448;4.742;2023-01-28T07:15:56;102956.16;;;4.88;100.00
54882;BME280;40775;51.448;4.742;2023-01-28T07:18:27;102962.69;;;4.83;100.00
54882;BME280;40775;51.448;4.742;2023-01-28T07:21:00;102975.16;;;4.87;100.00
54882;BME280;40775;51.448;4.742;2023-01-28T07:23:27;102968.59;;;4.92;100.00
54882;BME280;40775;51.448;4.742;2023-01-28T07:26:03;102969.47;;;4.81;100.00
54882;BME280;40775;51.448;4.742;2023-01-28T07:28:30;102976.06;;;4.87;100.00
54882;BME280;40775;51.448;4.742;2023-01-28T07:31:01;102976.84;;;4.86;100.00
54882;BME280;40775;51.448;4.742;2023-01-28T07:33:29;102979.88;;;4.81;100.00
54882;BME280;40775;51.448;4.742;2023-01-28T07:35:56;102977.84;;;4.77;100.00
54882;BME280;40775;51.448;4.742;2023-01-28T07:38:23;102978.97;;;4.80;100.00
54882;BME280;40775;51.448;4.742;2023-01-28T07:40:50;102978.31;;;4.83;100.00
54882;BME280;40775;51.448;4.742;2023-01-28T07:43:17;102977.16;;;4.79;100.00
54882;BME280;40775;51.448;4.742;2023-01-28T07:45:44;102987.81;;;4.82;100.00
54882;BME280;40775;51.448;4.742;2023-01-28T07:48:15;102974.91;;;4.84;100.00
54882;BME280;40775;51.448;4.742;2023-01-28T07:50:42;102979.88;;;4.81;100.00
54882;BME280;40775;51.448;4.742;2023-01-28T07:53:10;102979.22;;;4.83;100.00
54882;BME280;40775;51.448;4.742;2023-01-28T07:55:38;102976.50;;;4.82;100.00
54882;BME280;40775;51.448;4.742;2023-01-28T07:58:07;102986.91;;;4.82;100.00
54882;BME280;40775;51.448;4.742;2023-01-28T08:00:37;102986.22;;;4.84;100.00
54882;BME280;40775;51.448;4.742;2023-01-28T08:03:10;102984.41;;;4.83;100.00
54882;BME280;40775;51.448;4.742;2023-01-28T08:05:45;102983.75;;;4.86;100.00
54882;BME280;40775;51.448;4.742;2023-01-28T08:08:13;102986.66;;;4.79;100.00
54882;BME280;40775;51.448;4.742;2023-01-28T08:10:40;102991.88;;;4.79;100.00
54882;BME280;40775;51.448;4.742;2023-01-28T08:13:09;102994.81;;;4.83;100.00
54882;BME280;40775;51.448;4.742;2023-01-28T08:15:36;102997.00;;;4.89;100.00
54882;BME280;40775;51.448;4.742;2023-01-28T08:18:06;102996.41;;;4.81;100.00
54882;BME280;40775;51.448;4.742;2023-01-28T08:20:33;103001.06;;;4.85;100.00
54882;BME280;40775;51.448;4.742;2023-01-28T08:23:08;103006.38;;;4.87;100.00
54882;BME280;40775;51.448;4.742;2023-01-28T08:25:37;103012.13;;;4.83;100.00
54882;BME280;40775;51.448;4.742;2023-01-28T08:28:06;103019.03;;;4.82;100.00
54882;BME280;40775;51.448;4.742;2023-01-28T08:30:33;103016.19;;;4.79;100.00
54882;BME280;40775;51.448;4.742;2023-01-28T08:33:00;103019.94;;;4.83;100.00
54882;BME280;40775;51.448;4.742;2023-01-28T08:35:28;103019.03;;;4.82;100.00
54882;BME280;40775;51.448;4.742;2023-01-28T08:37:57;103016.56;;;4.84;100.00
54882;BME280;40775;51.448;4.742;2023-01-28T08:40:25;103029.44;;;4.82;100.00
54882;BME280;40775;51.448;4.742;2023-01-28T08:42:53;103027.88;;;4.84;100.00
54882;BME280;40775;51.448;4.742;2023-01-28T08:45:23;103027.19;;;4.87;100.00
54882;BME280;40775;51.448;4.742;2023-01-28T08:47:55;103021.22;;;4.88;100.00
54882;BME280;40775;51.448;4.742;2023-01-28T08:50:26;103028.78;;;4.85;100.00
54882;BME280;40775;51.448;4.742;2023-01-28T08:53:05;103026.06;;;4.83;100.00
54882;BME280;40775;51.448;4.742;2023-01-28T08:55:34;103034.97;;;4.75;100.00
54882;BME280;40775;51.448;4.742;2023-01-28T08:58:06;103032.16;;;4.84;100.00
54882;BME280;40775;51.448;4.742;2023-01-28T09:00:34;103032.66;;;4.90;100.00
54882;BME280;40775;51.448;4.742;2023-01-28T09:03:02;103037.31;;;4.94;100.00
54882;BME280;40775;51.448;4.742;2023-01-28T09:05:33;103050.97;;;4.91;100.00
54882;BME280;40775;51.448;4.742;2023-01-28T09:08:06;103039.03;;;4.93;100.00
54882;BME280;40775;51.448;4.742;2023-01-28T09:10:33;103040.69;;;4.93;100.00
54882;BME280;40775;51.448;4.742;2023-01-28T09:13:05;103028.19;;;4.99;100.00
54882;BME280;40775;51.448;4.742;2023-01-28T09:15:34;103035.25;;;4.90;100.00
54882;BME280;40775;51.448;4.742;2023-01-28T09:18:01;103037.84;;;4.90;100.00
54882;BME280;40775;51.448;4.742;2023-01-28T09:20:28;103041.97;;;4.98;100.00
54882;BME280;40775;51.448;4.742;2023-01-28T09:22:58;103046.03;;;4.94;100.00
54882;BME280;40775;51.448;4.742;2023-01-28T09:25:25;103051.47;;;4.97;100.00
54882;BME280;40775;51.448;4.742;2023-01-28T09:27:52;103063.88;;;4.90;100.00
54882;BME280;40775;51.448;4.742;2023-01-28T09:30:20;103065.53;;;5.00;100.00
54882;BME280;40775;51.448;4.742;2023-01-28T09:32:51;103068.13;;;5.00;100.00
54882;BME280;40775;51.448;4.742;2023-01-28T09:35:19;103070.63;;;4.98;100.00
54882;BME280;40775;51.448;4.742;2023-01-28T09:37:47;103081.50;;;5.04;100.00
54882;BME280;40775;51.448;4.742;2023-01-28T09:40:37;103081.31;;;4.91;100.00
54882;BME280;40775;51.448;4.742;2023-01-28T09:45:47;103089.63;;;4.97;100.00
54882;BME280;40775;51.448;4.742;2023-01-28T09:48:21;103089.31;;;5.04;100.00
54882;BME280;40775;51.448;4.742;2023-01-28T09:50:52;103078.41;;;4.98;100.00
54882;BME280;40775;51.448;4.742;2023-01-28T09:53:34;103089.31;;;5.04;100.00
54882;BME280;40775;51.448;4.742;2023-01-28T09:56:14;103079.13;;;5.07;100.00
54882;BME280;40775;51.448;4.742;2023-01-28T09:58:42;103079.38;;;5.10;100.00
54882;BME280;40775;51.448;4.742;2023-01-28T10:04:57;103095.19;;;5.02;100.00
54882;BME280;40775;51.448;4.742;2023-01-28T10:10:46;103091.59;;;5.11;100.00
54882;BME280;40775;51.448;4.742;2023-01-28T10:16:15;103098.84;;;5.15;100.00
54882;BME280;40775;51.448;4.742;2023-01-28T10:22:40;103093.53;;;5.14;100.00
54882;BME280;40775;51.448;4.742;2023-01-28T10:24:39;103092.63;;;5.13;100.00
54882;BME280;40775;51.448;4.742;2023-01-28T10:27:19;103087.78;;;5.18;100.00
54882;BME280;40775;51.448;4.742;2023-01-28T10:29:48;103089.06;;;5.23;100.00
54882;BME280;40775;51.448;4.742;2023-01-28T10:32:30;103090.19;;;5.26;100.00
54882;BME280;40775;51.448;4.742;2023-01-28T10:34:57;103087.03;;;5.31;100.00
54882;BME280;40775;51.448;4.742;2023-01-28T10:37:36;103084.56;;;5.32;100.00
54882;BME280;40775;51.448;4.742;2023-01-28T10:40:16;103087.50;;;5.37;100.00
54882;BME280;40775;51.448;4.742;2023-01-28T10:42:44;103075.59;;;5.28;100.00
54882;BME280;40775;51.448;4.742;2023-01-28T10:45:28;103083.66;;;5.32;100.00
54882;BME280;40775;51.448;4.742;2023-01-28T10:50:30;103081.41;;;5.36;100.00
54882;BME280;40775;51.448;4.742;2023-01-28T10:53:00;103075.19;;;5.46;100.00
54882;BME280;40775;51.448;4.742;2023-01-28T10:55:54;103076.31;;;5.38;100.00
54882;BME280;40775;51.448;4.742;2023-01-28T10:58:26;103078.84;;;5.48;100.00
54882;BME280;40775;51.448;4.742;2023-01-28T11:01:00;103066.28;;;5.54;100.00
54882;BME280;40775;51.448;4.742;2023-01-28T11:03:28;103062.53;;;5.50;100.00
54882;BME280;40775;51.448;4.742;2023-01-28T11:06:01;103062.84;;;5.43;100.00
54882;BME280;40775;51.448;4.742;2023-01-28T11:08:42;103060.94;;;5.52;100.00
54882;BME280;40775;51.448;4.742;2023-01-28T11:11:13;103062.09;;;5.56;100.00
54882;BME280;40775;51.448;4.742;2023-01-28T11:13:51;103066.63;;;5.58;100.00
54882;BME280;40775;51.448;4.742;2023-01-28T11:16:20;103051.00;;;5.70;100.00
54882;BME280;40775;51.448;4.742;2023-01-28T11:19:03;103055.75;;;5.64;100.00
54882;BME280;40775;51.448;4.742;2023-01-28T11:21:33;103051.78;;;5.69;100.00
54882;BME280;40775;51.448;4.742;2023-01-28T11:24:14;103051.44;;;5.65;100.00
54882;BME280;40775;51.448;4.742;2023-01-28T11:26:49;103048.72;;;5.75;100.00
54882;BME280;40775;51.448;4.742;2023-01-28T11:29:31;103045.81;;;5.82;100.00
54882;BME280;40775;51.448;4.742;2023-01-28T11:31:59;103035.69;;;5.75;100.00
54882;BME280;40775;51.448;4.742;2023-01-28T11:34:29;103022.81;;;5.88;100.00
54882;BME280;40775;51.448;4.742;2023-01-28T11:37:13;103025.97;;;5.84;100.00
54882;BME280;40775;51.448;4.742;2023-01-28T11:39:44;103020.22;;;6.00;100.00
54882;BME280;40775;51.448;4.742;2023-01-28T11:42:19;103014.44;;;5.92;100.00
54882;BME280;40775;51.448;4.742;2023-01-28T11:44:48;103009.34;;;5.94;100.00
54882;BME280;40775;51.448;4.742;2023-01-28T11:47:32;102998.56;;;6.01;100.00
54882;BME280;40775;51.448;4.742;2023-01-28T11:57:17;102952.75;;;6.16;100.00
54882;BME280;40775;51.448;4.742;2023-01-28T12:00:23;102964.72;;;6.26;100.00
54882;BME280;40775;51.448;4.742;2023-01-28T12:05:57;102958.50;;;6.24;100.00
54882;BME280;40775;51.448;4.742;2023-01-28T12:17:54;102931.88;;;6.53;100.00
54882;BME280;40775;51.448;4.742;2023-01-28T12:29:17;102951.16;;;6.55;100.00
54882;BME280;40775;51.448;4.742;2023-01-28T12:32:05;102964.53;;;6.59;100.00
54882;BME280;40775;51.448;4.742;2023-01-28T12:46:17;102975.81;;;6.71;100.00
54882;BME280;40775;51.448;4.742;2023-01-28T12:49:17;102981.97;;;6.72;100.00
54882;BME280;40775;51.448;4.742;2023-01-28T12:52:36;102987.59;;;6.78;100.00
54882;BME280;40775;51.448;4.742;2023-01-28T12:55:21;102989.63;;;6.82;100.00
54882;BME280;40775;51.448;4.742;2023-01-28T12:57:57;102978.28;;;6.81;100.00
54882;BME280;40775;51.448;4.742;2023-01-28T13:00:33;102981.38;;;6.76;100.00
54882;BME280;40775;51.448;4.742;2023-01-28T13:05:52;102974.41;;;6.88;100.00
54882;BME280;40775;51.448;4.742;2023-01-28T13:08:27;102990.97;;;6.89;100.00
54882;BME280;40775;51.448;4.742;2023-01-28T13:10:57;102991.31;;;7.06;100.00
54882;BME280;40775;51.448;4.742;2023-01-28T13:13:34;102996.50;;;6.93;100.00
54882;BME280;40775;51.448;4.742;2023-01-28T13:16:04;102985.56;;;6.86;100.00
54882;BME280;40775;51.448;4.742;2023-01-28T13:18:43;102978.47;;;6.85;100.00
54882;BME280;40775;51.448;4.742;2023-01-28T13:23:47;102953.72;;;6.91;100.00
54882;BME280;40775;51.448;4.742;2023-01-28T13:28:46;102953.72;;;6.91;100.00
54882;BME280;40775;51.448;4.742;2023-01-28T13:31:17;102950.53;;;6.95;100.00
54882;BME280;40775;51.448;4.742;2023-01-28T13:34:05;102949.13;;;7.00;100.00
54882;BME280;40775;51.448;4.742;2023-01-28T13:36:43;102945.66;;;7.13;100.00
54882;BME280;40775;51.448;4.742;2023-01-28T13:39:17;102950.97;;;7.15;100.00
54882;BME280;40775;51.448;4.742;2023-01-28T13:41:48;102941.09;;;7.10;100.00
54882;BME280;40775;51.448;4.742;2023-01-28T13:44:36;102934.31;;;7.12;100.00
54882;BME280;40775;51.448;4.742;2023-01-28T13:47:19;102930.19;;;7.16;100.00
54882;BME280;40775;51.448;4.742;2023-01-28T13:50:24;102917.94;;;7.15;100.00
54882;BME280;40775;51.448;4.742;2023-01-28T13:52:56;102911.00;;;7.16;100.00
54882;BME280;40775;51.448;4.742;2023-01-28T13:55:37;102910.19;;;7.30;100.00
54882;BME280;40775;51.448;4.742;2023-01-28T13:58:39;102907.19;;;7.24;100.00
54882;BME280;40775;51.448;4.742;2023-01-28T14:15:45;102907.66;;;7.05;100.00
54882;BME280;40775;51.448;4.742;2023-01-28T14:20:56;102930.44;;;7.07;100.00
54882;BME280;40775;51.448;4.742;2023-01-28T14:23:26;102954.75;;;7.06;100.00
54882;BME280;40775;51.448;4.742;2023-01-28T14:26:41;102941.41;;;7.02;100.00
54882;BME280;40775;51.448;4.742;2023-01-28T14:32:16;102944.50;;;6.96;100.00
54882;BME280;40775;51.448;4.742;2023-01-28T14:34:46;102932.53;;;6.87;100.00
54882;BME280;40775;51.448;4.742;2023-01-28T14:37:20;102929.00;;;6.86;100.00
54882;BME280;40775;51.448;4.742;2023-01-28T14:39:55;102925.25;;;6.82;100.00
54882;BME280;40775;51.448;4.742;2023-01-28T14:42:25;102935.34;;;6.90;100.00
54882;BME280;40775;51.448;4.742;2023-01-28T14:48:27;102937.97;;;6.90;100.00
54882;BME280;40775;51.448;4.742;2023-01-28T14:54:59;102949.34;;;6.78;100.00
54882;BME280;40775;51.448;4.742;2023-01-28T14:57:54;102957.28;;;6.80;100.00
54882;BME280;40775;51.448;4.742;2023-01-28T15:00:30;102961.69;;;6.81;100.00
54882;BME280;40775;51.448;4.742;2023-01-28T15:02:57;102965.13;;;6.80;100.00
54882;BME280;40775;51.448;4.742;2023-01-28T15:05:27;102949.03;;;6.74;100.00
54882;BME280;40775;51.448;4.742;2023-01-28T15:07:55;102949.84;;;6.73;100.00
54882;BME280;40775;51.448;4.742;2023-01-28T15:10:37;102938.38;;;6.71;100.00
54882;BME280;40775;51.448;4.742;2023-01-28T15:13:28;102937.28;;;6.67;100.00
54882;BME280;40775;51.448;4.742;2023-01-28T15:15:56;102941.59;;;6.67;100.00
54882;BME280;40775;51.448;4.742;2023-01-28T15:18:36;102936.97;;;6.63;100.00
54882;BME280;40775;51.448;4.742;2023-01-28T15:21:06;102944.47;;;6.58;100.00
54882;BME280;40775;51.448;4.742;2023-01-28T15:23:36;102949.44;;;6.55;100.00
54882;BME280;40775;51.448;4.742;2023-01-28T15:26:24;102946.63;;;6.52;100.00